NCAR-RAP Real-Time Weather Data

Output produced by METARs form (01 December 2020  18:39 UTC)
found at http://weather.rap.ucar.edu/surface/
 
KBRD 011653Z AUTO 16010KT 10SM CLR M02/M08 A3005 RMK AO2 SLP198 T10171078
KBRD 011553Z AUTO 15006KT 10SM CLR M03/M08 A3005 RMK AO2 SLP197 T10331083
KBRD 011453Z AUTO 17004KT 9SM CLR M07/M10 A3004 RMK AO2 SLP195 I3000 T10671100 53009
KBRD 011353Z AUTO 12003KT 7SM CLR M09/M12 A3003 RMK AO2 SLP193 T10941117
KBRD 011253Z AUTO 00000KT 9SM CLR M12/M13 A3002 RMK AO2 SLP192 I1000 T11171133
KBRD 011153Z AUTO 12003KT 10SM CLR M11/M13 A3001 RMK AO2 SLP187 I1000 I6000 T11061133 11083 21117 56011
KBRD 011053Z AUTO 12003KT 10SM CLR M11/M14 A3001 RMK AO2 SLP187 I1000 T11111139
KBRD 010953Z AUTO 00000KT 10SM CLR M11/M13 A3003 RMK AO2 SLP193 I1000 T11061128
KBRD 010853Z AUTO 00000KT 10SM CLR M11/M13 A3004 RMK AO2 SLP197 T11111128 55005
KBRD 010753Z AUTO 00000KT 10SM CLR M09/M12 A3004 RMK AO2 SLP194 T10941122
KBRD 010653Z AUTO 00000KT 10SM CLR M09/M12 A3005 RMK AO2 SLP200 T10941122
KBRD 010553Z AUTO 19004KT 10SM CLR M08/M12 A3006 RMK AO2 SLP202 T10831117 11061 21089 410281122 53002